createdAt,value
2022-10-07T00:01:06.253Z,13.90
2022-10-07T00:03:33.583Z,13.80
2022-10-07T00:06:06.289Z,13.80
2022-10-07T00:08:36.164Z,13.80
2022-10-07T00:11:29.646Z,14.00
2022-10-07T00:13:59.272Z,14.00
2022-10-07T00:16:32.928Z,14.10
2022-10-07T00:19:02.621Z,14.00
2022-10-07T00:21:31.739Z,13.90
2022-10-07T00:23:59.457Z,14.00
2022-10-07T00:26:28.951Z,14.10
2022-10-07T00:28:56.646Z,14.10
2022-10-07T00:31:26.611Z,14.20
2022-10-07T00:33:55.425Z,14.20
2022-10-07T00:36:28.927Z,14.10
2022-10-07T00:38:58.111Z,14.00
2022-10-07T00:41:37.588Z,14.00
2022-10-07T00:44:32.492Z,14.10
2022-10-07T00:47:05.994Z,14.10
2022-10-07T00:49:41.057Z,14.10
2022-10-07T00:52:08.528Z,14.10
2022-10-07T00:54:36.861Z,14.00
2022-10-07T00:57:04.208Z,14.00
2022-10-07T00:59:31.717Z,14.00
2022-10-07T01:01:58.659Z,13.90
2022-10-07T01:04:25.484Z,13.80
2022-10-07T01:06:52.553Z,13.80
2022-10-07T01:09:21.455Z,13.80
2022-10-07T01:12:18.903Z,13.80
2022-10-07T01:15:24.889Z,13.90
2022-10-07T01:18:14.999Z,13.70
2022-10-07T01:20:58.480Z,13.80
2022-10-07T01:23:51.548Z,13.90
2022-10-07T01:26:39.703Z,14.00
2022-10-07T01:29:18.802Z,14.00
2022-10-07T01:32:14.883Z,14.00
2022-10-07T01:34:44.300Z,13.90
2022-10-07T01:37:15.164Z,14.00
2022-10-07T01:39:53.397Z,13.80
2022-10-07T01:42:21.302Z,14.00
2022-10-07T01:44:54.741Z,14.10
2022-10-07T01:47:21.523Z,14.10
2022-10-07T01:49:48.414Z,14.10
2022-10-07T01:52:24.259Z,14.10
2022-10-07T01:55:22.591Z,14.10
2022-10-07T01:58:17.241Z,14.20
2022-10-07T02:00:52.623Z,14.20
2022-10-07T02:03:38.577Z,14.20
2022-10-07T02:06:09.087Z,14.30
2022-10-07T02:08:55.007Z,14.30
2022-10-07T02:11:27.983Z,14.30
2022-10-07T02:14:20.894Z,14.20
2022-10-07T02:16:50.607Z,14.20
2022-10-07T02:19:25.649Z,14.10
2022-10-07T02:21:54.700Z,13.90
2022-10-07T02:24:25.346Z,13.90
2022-10-07T02:26:54.307Z,13.60
2022-10-07T02:29:23.111Z,13.50
2022-10-07T02:31:52.353Z,13.70
2022-10-07T02:34:23.054Z,13.90
2022-10-07T02:36:56.220Z,13.90
2022-10-07T02:39:23.176Z,14.00
2022-10-07T02:41:58.839Z,14.10
2022-10-07T02:44:42.719Z,14.20
2022-10-07T02:47:29.103Z,14.10
2022-10-07T02:50:01.285Z,14.10
2022-10-07T02:52:31.400Z,14.00
2022-10-07T02:55:02.039Z,13.90
2022-10-07T02:57:32.877Z,14.00
2022-10-07T03:00:01.203Z,14.10
2022-10-07T03:02:38.422Z,14.00
2022-10-07T03:05:08.258Z,14.10
2022-10-07T03:07:36.064Z,14.10
2022-10-07T03:10:04.496Z,14.10
2022-10-07T03:12:31.450Z,14.00
2022-10-07T03:14:58.351Z,14.00
2022-10-07T03:17:25.181Z,14.00
2022-10-07T03:19:51.954Z,14.00
2022-10-07T03:22:18.802Z,14.10
2022-10-07T03:24:45.562Z,14.10
2022-10-07T03:27:12.420Z,13.80
2022-10-07T03:29:39.211Z,13.80
2022-10-07T03:32:06.074Z,13.70
2022-10-07T03:34:33.000Z,13.80
2022-10-07T03:36:59.936Z,13.90
2022-10-07T03:39:26.854Z,13.80
2022-10-07T03:41:53.769Z,13.70
2022-10-07T03:44:22.393Z,13.70
2022-10-07T03:46:50.271Z,13.70
2022-10-07T03:49:17.820Z,13.50
2022-10-07T03:51:44.735Z,13.60
2022-10-07T03:54:11.873Z,13.70
2022-10-07T03:56:38.679Z,13.80
2022-10-07T03:59:05.638Z,13.90
2022-10-07T04:01:32.646Z,13.90
2022-10-07T04:04:00.830Z,13.90
2022-10-07T04:06:29.414Z,13.90
2022-10-07T04:08:56.344Z,13.80
2022-10-07T04:11:24.292Z,13.60
2022-10-07T04:13:52.090Z,13.60
2022-10-07T04:16:19.974Z,13.60
2022-10-07T04:18:47.313Z,13.60
2022-10-07T04:21:14.171Z,13.50
2022-10-07T04:23:42.275Z,13.50
2022-10-07T04:26:11.231Z,13.50
2022-10-07T04:28:38.600Z,13.40
2022-10-07T04:31:08.838Z,13.50
2022-10-07T04:33:40.243Z,13.60
2022-10-07T04:36:09.420Z,13.50
2022-10-07T04:38:36.243Z,13.50
2022-10-07T04:41:05.474Z,13.40
2022-10-07T04:43:34.146Z,13.60
2022-10-07T04:46:09.353Z,13.50
2022-10-07T04:48:36.265Z,13.50
2022-10-07T04:51:08.179Z,13.50
2022-10-07T04:53:36.366Z,13.40
2022-10-07T04:56:04.163Z,13.50
2022-10-07T04:58:32.046Z,13.60
2022-10-07T05:01:00.724Z,13.80
2022-10-07T05:03:29.420Z,13.80
2022-10-07T05:06:05.571Z,13.70
2022-10-07T05:08:33.207Z,13.50
2022-10-07T05:11:01.450Z,13.50
2022-10-07T05:13:28.692Z,13.50
2022-10-07T05:16:01.008Z,13.60
2022-10-07T05:18:29.200Z,13.60
2022-10-07T05:20:56.586Z,13.60
2022-10-07T05:23:28.471Z,13.50
2022-10-07T05:26:01.841Z,13.50
2022-10-07T05:28:28.921Z,13.50
2022-10-07T05:31:10.906Z,13.60
2022-10-07T05:33:38.605Z,13.50
2022-10-07T05:36:07.894Z,13.50
2022-10-07T05:38:34.910Z,13.50
2022-10-07T05:41:04.276Z,13.40
2022-10-07T05:43:48.085Z,13.40
2022-10-07T05:46:17.103Z,13.50
2022-10-07T05:48:53.794Z,13.40
2022-10-07T05:51:22.736Z,13.40
2022-10-07T05:53:53.139Z,13.50
2022-10-07T05:56:21.621Z,13.40
2022-10-07T05:58:49.523Z,13.50
2022-10-07T06:01:22.292Z,13.50
2022-10-07T06:03:51.502Z,13.40
2022-10-07T06:06:19.533Z,13.40
2022-10-07T06:08:47.342Z,13.40
2022-10-07T06:11:35.269Z,13.40
2022-10-07T06:14:02.370Z,13.30
2022-10-07T06:16:29.359Z,13.30
2022-10-07T06:18:56.710Z,13.20
2022-10-07T06:21:27.797Z,13.20
2022-10-07T06:23:56.494Z,13.30
2022-10-07T06:26:23.626Z,13.40
2022-10-07T06:28:50.956Z,13.40
2022-10-07T06:31:25.146Z,13.60
2022-10-07T06:33:52.676Z,13.70
2022-10-07T06:36:19.910Z,13.70
2022-10-07T06:38:49.030Z,13.70
2022-10-07T06:41:16.331Z,13.70
2022-10-07T06:43:44.256Z,13.70
2022-10-07T06:46:16.621Z,13.70
2022-10-07T06:48:45.984Z,13.80
2022-10-07T06:51:18.227Z,13.70
2022-10-07T06:53:45.532Z,13.70
2022-10-07T06:56:14.239Z,13.70
2022-10-07T06:58:42.919Z,13.70
2022-10-07T07:01:10.353Z,13.70
2022-10-07T07:03:37.228Z,13.70
2022-10-07T07:06:05.052Z,13.70
2022-10-07T07:08:32.339Z,13.70
2022-10-07T07:11:27.696Z,13.70
2022-10-07T07:13:54.868Z,13.70
2022-10-07T07:16:22.186Z,13.80
2022-10-07T07:18:56.479Z,13.70
2022-10-07T07:21:24.453Z,13.80
2022-10-07T07:23:52.181Z,13.80
2022-10-07T07:26:20.360Z,13.80
2022-10-07T07:28:54.670Z,13.70
2022-10-07T07:31:21.734Z,13.70
2022-10-07T07:33:52.570Z,13.80
2022-10-07T07:36:23.722Z,13.80
2022-10-07T07:38:56.199Z,13.90
2022-10-07T07:41:26.228Z,13.90
2022-10-07T07:43:55.481Z,13.90
2022-10-07T07:46:24.867Z,13.90
2022-10-07T07:48:53.375Z,13.90
2022-10-07T07:51:20.731Z,13.90
2022-10-07T07:53:52.271Z,13.90
2022-10-07T07:56:20.573Z,13.90
2022-10-07T07:58:48.900Z,13.90
2022-10-07T08:01:18.720Z,13.80
2022-10-07T08:03:47.693Z,13.80
2022-10-07T08:06:18.003Z,13.80
2022-10-07T08:08:45.542Z,13.80
2022-10-07T08:11:18.480Z,13.90
2022-10-07T08:13:46.266Z,13.90
2022-10-07T08:16:16.054Z,13.90
2022-10-07T08:18:46.093Z,13.90
2022-10-07T08:21:15.083Z,13.90
2022-10-07T08:23:42.126Z,13.90
2022-10-07T08:26:11.719Z,14.00
2022-10-07T08:28:39.399Z,14.00
2022-10-07T08:31:14.271Z,14.00
2022-10-07T08:33:44.927Z,14.00
2022-10-07T08:36:14.943Z,14.10
2022-10-07T08:38:42.507Z,14.10
2022-10-07T08:41:09.814Z,14.20
2022-10-07T08:43:45.137Z,14.10
2022-10-07T08:46:23.020Z,14.20
2022-10-07T08:48:55.647Z,14.20
2022-10-07T08:51:30.339Z,14.20
2022-10-07T08:54:00.972Z,14.20
2022-10-07T08:56:30.406Z,14.30
2022-10-07T08:59:09.600Z,14.20
2022-10-07T09:01:42.586Z,14.20
2022-10-07T09:04:41.579Z,14.30
2022-10-07T09:07:21.613Z,14.30
2022-10-07T09:09:54.853Z,14.20
2022-10-07T09:12:30.404Z,14.20
2022-10-07T09:14:59.243Z,14.30
2022-10-07T09:17:35.200Z,14.30
2022-10-07T09:20:10.655Z,14.30
2022-10-07T09:22:39.649Z,14.30
2022-10-07T09:25:13.366Z,14.30
2022-10-07T09:27:40.337Z,14.20
2022-10-07T09:30:11.952Z,14.30
2022-10-07T09:32:43.095Z,14.30
2022-10-07T09:35:22.450Z,14.30
2022-10-07T09:38:08.130Z,14.30
2022-10-07T09:41:02.591Z,14.40
2022-10-07T09:43:31.421Z,14.40
2022-10-07T09:45:59.813Z,14.50
2022-10-07T09:48:34.293Z,14.50
2022-10-07T09:51:17.486Z,14.50
2022-10-07T09:53:58.584Z,14.50
2022-10-07T09:56:54.948Z,14.40
2022-10-07T09:59:22.928Z,14.50
2022-10-07T10:02:01.819Z,14.50
2022-10-07T10:04:35.537Z,14.50
2022-10-07T10:07:36.097Z,14.50
2022-10-07T10:10:23.272Z,14.50
2022-10-07T10:12:53.050Z,14.50
2022-10-07T10:15:42.985Z,14.60
2022-10-07T10:18:28.765Z,14.50
2022-10-07T10:20:55.748Z,14.30
2022-10-07T10:23:29.958Z,14.40
2022-10-07T10:26:33.353Z,14.50
2022-10-07T10:29:17.889Z,14.70
2022-10-07T10:32:07.492Z,14.70
2022-10-07T10:34:56.053Z,14.70
2022-10-07T10:37:50.342Z,14.80
2022-10-07T10:40:42.070Z,14.70
2022-10-07T10:43:30.167Z,14.70
2022-10-07T10:46:21.257Z,14.70
2022-10-07T10:49:10.701Z,14.70
2022-10-07T10:51:56.563Z,14.70
2022-10-07T10:54:50.911Z,14.60
2022-10-07T10:57:29.228Z,14.70
2022-10-07T10:59:58.879Z,14.80
2022-10-07T11:02:37.930Z,14.90
2022-10-07T11:05:13.565Z,15.10
2022-10-07T11:07:46.805Z,15.20
2022-10-07T11:10:24.139Z,15.30
2022-10-07T11:12:58.285Z,15.50
2022-10-07T11:15:41.289Z,15.60
2022-10-07T11:18:31.173Z,15.60
2022-10-07T11:20:59.585Z,15.40
2022-10-07T11:23:39.371Z,15.40
2022-10-07T11:26:34.469Z,15.50
2022-10-07T11:29:11.385Z,15.60
2022-10-07T11:31:42.355Z,15.70
2022-10-07T11:34:20.468Z,15.70
2022-10-07T11:37:06.852Z,15.70
2022-10-07T11:39:37.976Z,15.80
2022-10-07T11:42:15.818Z,15.60
2022-10-07T11:44:53.507Z,15.50
2022-10-07T11:47:26.319Z,15.70
2022-10-07T11:50:14.111Z,15.90
2022-10-07T11:52:45.799Z,15.70
2022-10-07T11:55:32.545Z,15.70
2022-10-07T11:58:02.018Z,15.90
2022-10-07T12:00:34.372Z,15.80
2022-10-07T12:03:33.706Z,15.50
2022-10-07T12:06:11.725Z,15.60
2022-10-07T12:08:41.986Z,15.70
2022-10-07T12:11:12.624Z,15.90
2022-10-07T12:13:43.748Z,15.90
2022-10-07T12:16:31.826Z,16.10
2022-10-07T12:19:11.012Z,16.00
2022-10-07T12:21:59.516Z,16.00
2022-10-07T12:24:28.056Z,15.80
2022-10-07T12:27:17.995Z,15.80
2022-10-07T12:29:48.604Z,15.80
2022-10-07T12:32:56.180Z,16.00
2022-10-07T12:35:34.324Z,16.00
2022-10-07T12:38:23.502Z,16.10
2022-10-07T12:41:17.774Z,16.00
2022-10-07T12:43:50.235Z,16.00
2022-10-07T12:46:20.574Z,15.90
2022-10-07T12:49:00.001Z,15.90
2022-10-07T12:51:39.258Z,15.90
2022-10-07T12:54:33.559Z,16.00
2022-10-07T12:57:02.436Z,16.00
2022-10-07T12:59:47.420Z,16.10
2022-10-07T13:02:25.695Z,16.20
